createdAt,value
2018-12-13T00:01:41.550Z,7.40
2018-12-13T00:04:09.621Z,7.97
2018-12-13T00:06:38.289Z,8.50
2018-12-13T00:09:07.250Z,7.67
2018-12-13T00:11:35.311Z,7.28
2018-12-13T00:14:03.388Z,7.97
2018-12-13T00:16:32.813Z,7.58
2018-12-13T00:19:00.945Z,7.10
2018-12-13T00:21:29.016Z,7.90
2018-12-13T00:23:57.097Z,8.63
2018-12-13T00:26:25.152Z,8.00
2018-12-13T00:28:53.227Z,7.40
2018-12-13T00:31:21.316Z,8.37
2018-12-13T00:33:49.402Z,8.67
2018-12-13T00:36:17.470Z,8.90
2018-12-13T00:38:45.587Z,8.57
2018-12-13T00:41:13.659Z,8.37
2018-12-13T00:43:41.717Z,9.30
2018-12-13T00:46:09.790Z,9.63
2018-12-13T00:48:37.864Z,8.70
2018-12-13T00:51:05.949Z,8.70
2018-12-13T00:53:34.032Z,9.33
2018-12-13T00:56:02.088Z,9.47
2018-12-13T00:58:30.155Z,10.40
2018-12-13T01:01:00.613Z,10.47
2018-12-13T01:03:28.783Z,9.57
2018-12-13T01:05:56.948Z,10.77
2018-12-13T01:08:25.043Z,10.30
2018-12-13T01:10:53.112Z,11.00
2018-12-13T01:13:21.178Z,11.00
2018-12-13T01:15:49.265Z,11.47
2018-12-13T01:18:17.333Z,12.43
2018-12-13T01:20:45.405Z,13.47
2018-12-13T01:23:13.768Z,13.13
2018-12-13T01:25:41.849Z,13.40
2018-12-13T01:28:09.920Z,13.77
2018-12-13T01:30:37.988Z,12.77
2018-12-13T01:33:06.055Z,14.07
2018-12-13T01:35:34.131Z,13.87
2018-12-13T01:38:02.237Z,14.43
2018-12-13T01:40:30.291Z,15.10
2018-12-13T01:42:58.396Z,16.07
2018-12-13T01:45:26.833Z,15.83
2018-12-13T01:47:54.897Z,15.77
2018-12-13T01:50:22.980Z,15.00
2018-12-13T01:52:51.057Z,15.33
2018-12-13T01:55:19.128Z,14.37
2018-12-13T01:57:47.191Z,17.43
2018-12-13T02:00:15.306Z,16.90
2018-12-13T02:02:43.371Z,16.93
2018-12-13T02:05:11.445Z,16.70
2018-12-13T02:07:39.845Z,16.23
2018-12-13T02:10:08.560Z,16.07
2018-12-13T02:12:36.633Z,19.73
2018-12-13T02:15:05.414Z,17.83
2018-12-13T02:17:33.488Z,18.90
2018-12-13T02:20:01.569Z,17.93
2018-12-13T02:22:29.648Z,19.13
2018-12-13T02:24:57.724Z,18.23
2018-12-13T02:27:25.797Z,19.30
2018-12-13T02:29:54.280Z,17.53
2018-12-13T02:32:22.335Z,17.10
2018-12-13T02:34:50.401Z,18.73
2018-12-13T02:37:18.477Z,17.63
2018-12-13T02:39:46.543Z,17.33
2018-12-13T02:42:15.425Z,16.70
2018-12-13T02:44:43.496Z,17.37
2018-12-13T02:47:11.573Z,16.23
2018-12-13T02:49:39.645Z,16.07
2018-12-13T02:52:08.248Z,14.83
2018-12-13T02:54:36.317Z,17.07
2018-12-13T02:57:04.407Z,15.53
2018-12-13T02:59:32.477Z,15.83
2018-12-13T03:02:00.555Z,15.53
2018-12-13T03:04:28.823Z,16.27
2018-12-13T03:06:56.901Z,17.20
2018-12-13T03:09:24.965Z,17.43
2018-12-13T03:11:53.027Z,17.23
2018-12-13T03:14:21.303Z,15.40
2018-12-13T03:16:49.366Z,15.23
2018-12-13T03:19:17.452Z,16.20
2018-12-13T03:21:45.529Z,17.37
2018-12-13T03:24:13.621Z,17.67
2018-12-13T03:26:41.703Z,17.00
2018-12-13T03:29:09.782Z,14.97
2018-12-13T03:31:37.861Z,15.40
2018-12-13T03:34:05.953Z,15.70
2018-12-13T03:36:34.366Z,15.40
2018-12-13T03:39:02.438Z,15.70
2018-12-13T03:41:30.512Z,15.20
2018-12-13T03:43:58.960Z,14.73
2018-12-13T03:46:27.040Z,13.27
2018-12-13T03:48:55.114Z,13.40
2018-12-13T03:51:23.200Z,14.27
2018-12-13T03:53:51.261Z,12.57
2018-12-13T03:56:19.334Z,13.20
2018-12-13T03:58:47.702Z,14.00
2018-12-13T04:01:15.771Z,12.37
2018-12-13T04:03:43.840Z,13.83
2018-12-13T04:06:12.022Z,13.18
2018-12-13T04:08:40.092Z,10.97
2018-12-13T04:11:08.168Z,13.33
2018-12-13T04:13:36.649Z,12.87
2018-12-13T04:16:04.725Z,12.55
2018-12-13T04:18:32.793Z,12.40
2018-12-13T04:21:01.400Z,12.17
2018-12-13T04:23:29.556Z,12.40
2018-12-13T04:25:57.653Z,12.93
2018-12-13T04:28:25.840Z,12.70
2018-12-13T04:30:53.924Z,13.43
2018-12-13T04:33:21.994Z,12.60
2018-12-13T04:35:50.075Z,13.70
2018-12-13T04:38:18.128Z,13.50
2018-12-13T04:40:46.219Z,14.33
2018-12-13T04:43:14.549Z,15.33
2018-12-13T04:45:42.621Z,15.23
2018-12-13T04:48:10.690Z,16.67
2018-12-13T04:50:39.592Z,16.70
2018-12-13T04:53:07.752Z,15.90
2018-12-13T04:55:35.950Z,15.23
2018-12-13T04:58:04.053Z,15.73
2018-12-13T05:00:32.115Z,15.33
2018-12-13T05:03:00.209Z,16.67
2018-12-13T05:05:28.735Z,17.50
2018-12-13T05:07:56.829Z,15.70
2018-12-13T05:10:42.741Z,16.47
2018-12-13T05:13:10.822Z,16.13
2018-12-13T05:15:39.019Z,15.08
2018-12-13T05:18:07.092Z,15.20
2018-12-13T05:20:35.153Z,15.40
2018-12-13T05:23:03.212Z,15.00
2018-12-13T05:25:31.748Z,15.50
2018-12-13T05:27:59.830Z,14.17
2018-12-13T05:30:27.896Z,13.77
2018-12-13T05:32:55.977Z,13.63
2018-12-13T05:35:24.055Z,14.53
2018-12-13T05:37:52.120Z,13.23
2018-12-13T05:40:20.214Z,14.13
2018-12-13T05:42:48.284Z,14.53
2018-12-13T05:45:16.361Z,14.90
2018-12-13T05:47:44.711Z,14.93
2018-12-13T05:50:12.783Z,13.07
2018-12-13T05:52:40.847Z,14.80
2018-12-13T05:55:08.941Z,15.23
2018-12-13T05:57:37.030Z,14.93
2018-12-13T06:00:07.809Z,14.37
2018-12-13T06:02:35.884Z,14.23
2018-12-13T06:05:05.153Z,14.47
2018-12-13T06:07:33.226Z,14.47
2018-12-13T06:10:01.540Z,13.57
2018-12-13T06:12:29.612Z,14.20
2018-12-13T06:14:57.809Z,15.80
2018-12-13T06:17:25.911Z,16.23
2018-12-13T06:19:53.970Z,17.33
2018-12-13T06:22:22.045Z,16.23
2018-12-13T06:24:50.122Z,16.73
2018-12-13T06:27:18.198Z,16.53
2018-12-13T06:29:48.941Z,15.93
2018-12-13T06:32:16.846Z,16.50
2018-12-13T06:34:44.917Z,16.70
2018-12-13T06:37:13.008Z,16.48
2018-12-13T06:39:41.084Z,17.13
2018-12-13T06:42:09.146Z,16.83
2018-12-13T06:44:37.208Z,16.50
2018-12-13T06:47:05.279Z,16.13
2018-12-13T06:49:33.375Z,17.47
2018-12-13T06:52:01.482Z,17.63
2018-12-13T06:54:30.010Z,16.63
2018-12-13T06:56:58.076Z,16.95
2018-12-13T06:59:26.154Z,16.40
2018-12-13T07:01:54.219Z,16.43
2018-12-13T07:04:22.313Z,16.57
2018-12-13T07:06:50.376Z,16.23
2018-12-13T07:09:18.458Z,14.90
2018-12-13T07:11:46.529Z,16.07
2018-12-13T07:14:14.639Z,14.23
2018-12-13T07:16:43.020Z,16.20
2018-12-13T07:19:11.420Z,14.70
2018-12-13T07:21:39.497Z,14.37
2018-12-13T07:24:07.573Z,16.27
2018-12-13T07:26:35.652Z,15.78
2018-12-13T07:29:03.724Z,13.93
2018-12-13T07:31:31.811Z,12.77
2018-12-13T07:33:59.881Z,14.60
2018-12-13T07:36:27.943Z,13.77
2018-12-13T07:38:56.340Z,14.17
2018-12-13T07:41:24.417Z,13.83
2018-12-13T07:43:52.493Z,13.73
2018-12-13T07:46:20.594Z,14.87
2018-12-13T07:48:48.656Z,13.30
2018-12-13T07:51:16.727Z,13.53
2018-12-13T07:53:44.805Z,14.50
2018-12-13T07:56:12.878Z,14.73
2018-12-13T07:58:40.936Z,14.07
2018-12-13T08:01:09.218Z,13.37
2018-12-13T08:03:37.288Z,14.63
2018-12-13T08:06:05.353Z,14.30
2018-12-13T08:08:33.431Z,14.57
2018-12-13T08:11:01.705Z,14.67
2018-12-13T08:13:29.763Z,12.57
2018-12-13T08:15:57.869Z,15.07
2018-12-13T08:18:25.941Z,12.93
2018-12-13T08:20:54.048Z,13.47
2018-12-13T08:23:22.742Z,13.60
2018-12-13T08:25:50.813Z,13.87
2018-12-13T08:28:18.880Z,13.87
2018-12-13T08:30:46.956Z,12.70
2018-12-13T08:33:15.024Z,13.23
2018-12-13T08:35:43.097Z,12.17
2018-12-13T08:38:11.172Z,12.43
2018-12-13T08:40:39.261Z,12.93
2018-12-13T08:43:07.433Z,12.13
2018-12-13T08:45:35.588Z,14.00
2018-12-13T08:48:03.667Z,12.27
2018-12-13T08:50:31.729Z,12.83
2018-12-13T08:52:59.798Z,12.53
2018-12-13T08:55:27.858Z,10.80
2018-12-13T08:57:55.931Z,11.80
2018-12-13T09:00:24.012Z,12.77
2018-12-13T09:02:52.089Z,12.70
2018-12-13T09:05:20.161Z,13.47
2018-12-13T09:07:48.747Z,13.67
2018-12-13T09:10:16.823Z,12.33
2018-12-13T09:12:44.884Z,12.10
2018-12-13T09:15:12.969Z,13.47
2018-12-13T09:17:41.061Z,13.33
2018-12-13T09:20:09.132Z,13.90
2018-12-13T09:22:37.772Z,12.60
2018-12-13T09:25:07.732Z,12.70
2018-12-13T09:27:35.803Z,12.80
2018-12-13T09:30:05.995Z,12.53
2018-12-13T09:35:08.624Z,13.43
2018-12-13T09:37:36.685Z,12.20
2018-12-13T09:40:06.188Z,12.50
2018-12-13T09:42:34.271Z,12.33
2018-12-13T09:45:02.335Z,13.10
2018-12-13T09:47:30.495Z,12.97
2018-12-13T09:49:58.967Z,11.67
2018-12-13T09:52:27.027Z,11.83
2018-12-13T09:54:55.117Z,11.67
2018-12-13T09:57:23.193Z,12.10
2018-12-13T09:59:51.361Z,12.50
2018-12-13T10:02:19.438Z,12.57
2018-12-13T10:04:47.504Z,10.93
2018-12-13T10:07:15.625Z,11.57
2018-12-13T10:09:43.679Z,11.50
2018-12-13T10:12:12.132Z,10.87
2018-12-13T10:14:40.217Z,10.83
2018-12-13T10:17:08.285Z,11.33
2018-12-13T10:19:36.368Z,11.07
2018-12-13T10:22:04.440Z,11.07
2018-12-13T10:24:32.561Z,10.87
2018-12-13T10:27:00.647Z,10.97
2018-12-13T10:29:28.721Z,10.93
2018-12-13T10:31:56.803Z,9.83
2018-12-13T10:34:25.483Z,10.50
2018-12-13T10:36:53.581Z,9.80
2018-12-13T10:39:21.657Z,10.17
2018-12-13T10:41:49.777Z,9.67
2018-12-13T10:44:19.769Z,10.03
2018-12-13T10:46:47.833Z,10.43
2018-12-13T10:49:15.938Z,10.93
2018-12-13T10:51:45.832Z,9.67
2018-12-13T10:54:13.904Z,10.73
2018-12-13T10:56:42.343Z,11.03
2018-12-13T10:59:10.418Z,11.20
2018-12-13T11:01:40.344Z,11.10
2018-12-13T11:04:08.625Z,10.00
2018-12-13T11:06:36.696Z,11.47
2018-12-13T11:09:06.255Z,10.03
2018-12-13T11:11:34.345Z,10.90
2018-12-13T11:14:02.421Z,10.23
2018-12-13T11:16:30.512Z,10.83
2018-12-13T11:18:59.069Z,9.83
2018-12-13T11:21:27.140Z,9.53
2018-12-13T11:23:55.233Z,9.77
2018-12-13T11:26:23.902Z,9.83
2018-12-13T11:29:09.849Z,9.47
2018-12-13T11:31:37.941Z,9.05
2018-12-13T11:34:06.038Z,9.43
2018-12-13T11:36:34.116Z,10.27
2018-12-13T11:39:05.727Z,10.53
2018-12-13T11:41:32.780Z,8.67
2018-12-13T11:44:00.865Z,8.77
2018-12-13T11:46:28.949Z,9.20
2018-12-13T11:48:57.012Z,9.07
2018-12-13T11:51:25.090Z,9.53
2018-12-13T11:53:53.160Z,8.80
2018-12-13T11:56:21.245Z,10.43
2018-12-13T11:58:49.350Z,9.57
2018-12-13T12:01:17.806Z,9.80
2018-12-13T12:03:45.879Z,10.57
2018-12-13T12:06:13.941Z,10.70
2018-12-13T12:08:42.019Z,10.27
2018-12-13T12:11:10.087Z,10.80
2018-12-13T12:13:38.186Z,11.67
2018-12-13T12:16:06.295Z,10.23
2018-12-13T12:18:34.406Z,11.27
2018-12-13T12:21:02.480Z,11.07
2018-12-13T12:23:30.954Z,12.10
2018-12-13T12:25:59.119Z,12.17
2018-12-13T12:28:27.489Z,11.67
2018-12-13T12:30:55.585Z,12.93
2018-12-13T12:33:23.662Z,11.93
2018-12-13T12:35:51.736Z,12.60
2018-12-13T12:38:19.830Z,12.67
2018-12-13T12:40:47.929Z,13.38
2018-12-13T12:43:16.021Z,13.80
2018-12-13T12:45:44.324Z,14.20
2018-12-13T12:48:12.383Z,12.33
2018-12-13T12:50:40.461Z,13.90
2018-12-13T12:53:08.632Z,11.73
2018-12-13T12:55:36.708Z,12.60
2018-12-13T12:58:04.771Z,39.33
2018-12-13T13:00:32.857Z,13.90
2018-12-13T13:03:01.135Z,11.80
2018-12-13T13:05:29.220Z,12.65
2018-12-13T13:07:57.795Z,11.57
2018-12-13T13:10:26.175Z,12.97
2018-12-13T13:12:54.242Z,12.33
2018-12-13T13:15:22.318Z,12.13
2018-12-13T13:17:50.394Z,11.30
2018-12-13T13:20:18.465Z,10.43
2018-12-13T13:22:46.540Z,12.30
2018-12-13T13:25:14.608Z,11.33
2018-12-13T13:27:42.689Z,11.53
2018-12-13T13:30:11.465Z,11.33
2018-12-13T13:32:39.535Z,9.90
2018-12-13T13:35:07.600Z,10.13
2018-12-13T13:37:35.678Z,9.97
2018-12-13T13:40:04.739Z,10.93
2018-12-13T13:42:32.814Z,11.10
2018-12-13T13:45:01.109Z,11.43
2018-12-13T13:47:29.175Z,11.30
2018-12-13T13:49:57.256Z,10.30
2018-12-13T13:52:25.642Z,12.03
2018-12-13T13:54:53.718Z,10.73
2018-12-13T13:57:21.789Z,10.63
2018-12-13T13:59:49.885Z,9.97
2018-12-13T14:02:17.954Z,9.40
2018-12-13T14:04:46.020Z,9.43
2018-12-13T14:07:14.101Z,9.73
2018-12-13T14:09:42.181Z,10.60
2018-12-13T14:12:10.268Z,11.17
2018-12-13T14:14:38.789Z,9.67
2018-12-13T14:17:06.869Z,9.50
2018-12-13T14:19:34.944Z,11.63
2018-12-13T14:22:03.020Z,40.83
2018-12-13T14:24:31.084Z,13.33
2018-12-13T14:26:59.165Z,13.37
2018-12-13T14:29:27.254Z,12.27
2018-12-13T14:31:55.557Z,12.57
2018-12-13T14:34:23.633Z,11.23
2018-12-13T14:36:51.947Z,10.43
2018-12-13T14:39:20.021Z,12.27
2018-12-13T14:41:48.109Z,11.23
2018-12-13T14:44:16.192Z,12.30
2018-12-13T14:46:44.272Z,11.13
2018-12-13T14:49:12.347Z,11.70
2018-12-13T14:51:40.434Z,11.13
2018-12-13T14:54:08.593Z,10.97
2018-12-13T14:56:36.670Z,11.53
2018-12-13T14:59:05.012Z,11.23
2018-12-13T15:01:34.356Z,12.67
2018-12-13T15:04:02.682Z,10.80
2018-12-13T15:06:30.763Z,10.70
2018-12-13T15:08:58.823Z,10.90
2018-12-13T15:11:26.897Z,10.53
2018-12-13T15:16:29.280Z,10.23
2018-12-13T15:18:57.852Z,11.20
2018-12-13T15:21:25.960Z,12.10
2018-12-13T15:23:54.043Z,13.00
2018-12-13T15:26:22.208Z,10.37
2018-12-13T15:28:50.269Z,10.33
2018-12-13T15:31:18.350Z,10.53
2018-12-13T15:33:46.496Z,12.53
2018-12-13T15:36:14.563Z,11.27
2018-12-13T15:38:42.641Z,11.20
2018-12-13T15:41:11.035Z,12.07
2018-12-13T15:43:39.115Z,11.33
2018-12-13T15:46:07.186Z,10.87
2018-12-13T15:48:35.261Z,11.40
2018-12-13T15:51:03.384Z,11.17
2018-12-13T15:53:31.467Z,12.00
2018-12-13T15:55:59.554Z,11.27
2018-12-13T15:58:27.642Z,11.23
2018-12-13T16:00:55.709Z,11.67
2018-12-13T16:03:24.091Z,12.33
2018-12-13T16:05:52.163Z,12.13
2018-12-13T16:08:20.235Z,12.73
2018-12-13T16:10:48.317Z,10.90
2018-12-13T16:13:16.381Z,11.17
2018-12-13T16:15:44.468Z,11.73
2018-12-13T16:18:12.555Z,11.63
2018-12-13T16:20:40.628Z,11.50
2018-12-13T16:23:08.688Z,10.53
2018-12-13T16:25:37.080Z,12.60
2018-12-13T16:28:05.141Z,11.47
2018-12-13T16:30:33.207Z,12.73
2018-12-13T16:33:01.396Z,11.57
2018-12-13T16:35:29.919Z,12.77
2018-12-13T16:37:57.983Z,12.60
2018-12-13T16:40:26.077Z,11.50
2018-12-13T16:42:54.147Z,11.27
2018-12-13T16:45:22.216Z,11.40
2018-12-13T16:47:50.338Z,11.40
2018-12-13T16:50:18.408Z,10.28
2018-12-13T16:52:46.490Z,11.43
2018-12-13T16:55:14.568Z,12.03
2018-12-13T16:57:42.638Z,11.23
2018-12-13T17:00:10.808Z,20.83
2018-12-13T17:02:38.884Z,11.43
2018-12-13T17:05:08.209Z,11.40
2018-12-13T17:07:36.269Z,10.20
2018-12-13T17:10:06.744Z,10.73
2018-12-13T17:12:34.816Z,9.90
2018-12-13T17:15:02.885Z,11.17
2018-12-13T17:17:30.965Z,10.23
2018-12-13T17:19:59.029Z,10.03
2018-12-13T17:22:27.113Z,10.80
2018-12-13T17:24:55.194Z,10.63
2018-12-13T17:27:23.260Z,11.03
2018-12-13T17:29:51.319Z,10.70
2018-12-13T17:32:19.801Z,10.50
2018-12-13T17:34:47.870Z,10.50
2018-12-13T17:37:16.133Z,10.32
2018-12-13T17:39:44.224Z,11.30
2018-12-13T17:42:12.297Z,11.43
2018-12-13T17:44:40.360Z,10.87
2018-12-13T17:47:08.452Z,10.60
2018-12-13T17:49:36.498Z,12.27
2018-12-13T17:52:04.581Z,11.17
2018-12-13T17:54:33.062Z,12.17
2018-12-13T17:57:01.127Z,12.60
2018-12-13T17:59:29.195Z,10.53
2018-12-13T18:01:57.272Z,12.00
2018-12-13T18:04:25.333Z,12.23
2018-12-13T18:06:53.419Z,11.50
2018-12-13T18:09:21.605Z,12.77
2018-12-13T18:11:49.673Z,14.47
2018-12-13T18:14:17.733Z,13.20
2018-12-13T18:16:45.855Z,14.27
2018-12-13T18:19:13.919Z,13.10
2018-12-13T18:21:41.993Z,13.93
2018-12-13T18:24:10.111Z,13.33
2018-12-13T18:26:38.241Z,13.00
2018-12-13T18:29:06.462Z,12.37
2018-12-13T18:31:34.669Z,11.93
2018-12-13T18:34:02.921Z,15.00
2018-12-13T18:36:31.003Z,14.47
2018-12-13T18:38:59.137Z,14.27
2018-12-13T18:41:27.283Z,13.17
2018-12-13T18:43:55.350Z,16.37
2018-12-13T18:46:23.451Z,12.30
2018-12-13T18:48:51.567Z,10.43
2018-12-13T18:51:19.637Z,12.17
2018-12-13T18:53:47.717Z,11.20
2018-12-13T18:56:15.788Z,10.90
2018-12-13T18:58:43.859Z,10.80
2018-12-13T19:01:12.038Z,10.57
2018-12-13T19:03:40.101Z,10.70
2018-12-13T19:06:08.176Z,11.22
2018-12-13T19:08:36.271Z,10.47
2018-12-13T19:11:04.557Z,10.30
2018-12-13T19:13:32.656Z,11.77
2018-12-13T19:16:00.738Z,10.90
2018-12-13T19:18:28.819Z,12.40
2018-12-13T19:20:56.876Z,11.20
2018-12-13T19:23:24.993Z,10.53
2018-12-13T19:25:53.065Z,11.27
2018-12-13T19:28:21.148Z,10.33
2018-12-13T19:30:49.218Z,10.73
2018-12-13T19:33:17.275Z,12.93
2018-12-13T19:35:45.591Z,12.67
2018-12-13T19:38:13.680Z,11.93
2018-12-13T19:40:48.177Z,12.57
2018-12-13T19:43:12.239Z,13.50
2018-12-13T19:45:40.340Z,13.47
2018-12-13T19:48:08.437Z,12.53
2018-12-13T19:50:36.704Z,11.83
2018-12-13T19:53:04.875Z,11.57
2018-12-13T19:55:32.937Z,11.80
2018-12-13T19:58:01.010Z,11.10
2018-12-13T20:00:29.096Z,12.27
2018-12-13T20:02:57.199Z,10.90
2018-12-13T20:05:25.276Z,11.53
2018-12-13T20:07:53.536Z,11.80
2018-12-13T20:10:21.611Z,11.73
2018-12-13T20:12:49.681Z,14.97
2018-12-13T20:15:23.952Z,13.23
2018-12-13T20:17:47.859Z,11.53
2018-12-13T20:20:15.936Z,12.50
2018-12-13T20:22:44.230Z,11.67
2018-12-13T20:25:12.382Z,10.43
2018-12-13T20:27:40.441Z,12.27
2018-12-13T20:30:09.234Z,11.10
2018-12-13T20:32:37.321Z,10.17
2018-12-13T20:35:06.785Z,10.83
2018-12-13T20:37:34.861Z,11.10
2018-12-13T20:40:03.242Z,10.60
2018-12-13T20:42:31.540Z,11.20
2018-12-13T20:44:59.621Z,10.60
2018-12-13T20:47:27.725Z,12.23
2018-12-13T20:49:55.809Z,12.57
2018-12-13T20:52:24.260Z,11.80
2018-12-13T20:54:52.306Z,10.63
2018-12-13T20:57:20.488Z,12.97
2018-12-13T20:59:48.562Z,11.90
2018-12-13T21:02:16.736Z,10.93
2018-12-13T21:04:44.775Z,10.00
2018-12-13T21:07:18.407Z,11.43
2018-12-13T21:09:46.451Z,11.60
2018-12-13T21:12:15.861Z,11.03
2018-12-13T21:14:44.220Z,10.53
2018-12-13T21:17:12.280Z,10.90
2018-12-13T21:19:40.351Z,10.80
2018-12-13T21:22:08.428Z,11.20
2018-12-13T21:24:36.625Z,11.03
2018-12-13T21:27:04.797Z,12.20
2018-12-13T21:29:32.936Z,11.67
2018-12-13T21:32:01.054Z,10.00
2018-12-13T21:34:29.125Z,10.53
2018-12-13T21:36:57.237Z,9.93
2018-12-13T21:39:25.311Z,10.93
2018-12-13T21:41:53.389Z,10.17
2018-12-13T21:44:21.632Z,10.27
2018-12-13T21:46:49.700Z,10.90
2018-12-13T21:49:17.770Z,9.90
2018-12-13T21:51:45.846Z,9.38
2018-12-13T21:54:14.088Z,9.77
2018-12-13T21:56:42.906Z,10.13
2018-12-13T21:59:11.528Z,11.00
2018-12-13T22:01:39.697Z,10.97
2018-12-13T22:04:07.876Z,13.73
2018-12-13T22:06:35.969Z,10.67
2018-12-13T22:09:06.337Z,11.40
2018-12-13T22:11:34.507Z,11.13
2018-12-13T22:14:02.587Z,10.23
2018-12-13T22:16:30.772Z,11.00
2018-12-13T22:18:58.836Z,10.63
2018-12-13T22:21:27.388Z,9.40
2018-12-13T22:23:55.449Z,10.47
2018-12-13T22:26:23.531Z,10.60
2018-12-13T22:28:51.599Z,11.20
2018-12-13T22:31:19.682Z,11.10
2018-12-13T22:33:47.751Z,11.17
2018-12-13T22:36:15.836Z,12.83
2018-12-13T22:38:43.910Z,12.07
2018-12-13T22:41:11.971Z,11.27
2018-12-13T22:43:40.287Z,12.23
2018-12-13T22:46:08.652Z,12.37
2018-12-13T22:48:36.723Z,12.37
2018-12-13T22:51:04.924Z,12.43
2018-12-13T22:53:32.994Z,11.83
2018-12-13T22:56:01.056Z,11.60
2018-12-13T22:58:29.133Z,12.67
2018-12-13T23:00:58.109Z,12.03
2018-12-13T23:03:26.670Z,13.57
2018-12-13T23:05:55.116Z,11.60
2018-12-13T23:08:23.189Z,12.00
2018-12-13T23:10:51.271Z,12.90
2018-12-13T23:13:19.345Z,12.47
2018-12-13T23:15:47.415Z,12.07
2018-12-13T23:18:15.489Z,12.30
2018-12-13T23:20:43.737Z,11.40
2018-12-13T23:23:11.791Z,12.80
2018-12-13T23:25:39.864Z,13.27
2018-12-13T23:28:08.525Z,13.47
2018-12-13T23:30:36.608Z,12.43
2018-12-13T23:33:04.686Z,12.20
2018-12-13T23:35:32.767Z,11.33
2018-12-13T23:38:00.832Z,11.10
2018-12-13T23:40:28.908Z,11.33
2018-12-13T23:42:56.992Z,11.30
2018-12-13T23:45:25.090Z,9.57
2018-12-13T23:47:53.404Z,11.53
2018-12-13T23:50:21.539Z,11.13
2018-12-13T23:52:49.697Z,11.27
2018-12-13T23:55:17.789Z,10.40
2018-12-13T23:57:45.859Z,9.80
